sensor_id;sensor_type;location;lat;lon;timestamp;temperature;humidity
23562;DHT22;11959;49.418;8.728;2023-02-14T00:01:44;3.30;99.90
23562;DHT22;11959;49.418;8.728;2023-02-14T00:04:10;3.30;99.90
23562;DHT22;11959;49.418;8.728;2023-02-14T00:06:36;3.30;99.90
23562;DHT22;11959;49.418;8.728;2023-02-14T00:09:15;3.20;99.90
23562;DHT22;11959;49.418;8.728;2023-02-14T00:11:41;3.10;99.90
23562;DHT22;11959;49.418;8.728;2023-02-14T00:14:08;3.10;99.90
23562;DHT22;11959;49.418;8.728;2023-02-14T00:16:52;3.00;99.90
23562;DHT22;11959;49.418;8.728;2023-02-14T00:19:18;3.00;99.90
23562;DHT22;11959;49.418;8.728;2023-02-14T00:21:45;3.00;99.90
23562;DHT22;11959;49.418;8.728;2023-02-14T00:24:19;2.90;99.90
23562;DHT22;11959;49.418;8.728;2023-02-14T00:26:46;2.90;99.90
23562;DHT22;11959;49.418;8.728;2023-02-14T00:29:15;2.90;99.90
23562;DHT22;11959;49.418;8.728;2023-02-14T00:31:41;2.90;99.90
23562;DHT22;11959;49.418;8.728;2023-02-14T00:34:10;2.90;99.90
23562;DHT22;11959;49.418;8.728;2023-02-14T00:36:36;2.80;99.90
23562;DHT22;11959;49.418;8.728;2023-02-14T00:39:07;2.70;99.90
23562;DHT22;11959;49.418;8.728;2023-02-14T00:41:33;2.70;99.90
23562;DHT22;11959;49.418;8.728;2023-02-14T00:43:59;2.70;99.90
23562;DHT22;11959;49.418;8.728;2023-02-14T00:46:26;2.60;99.90
23562;DHT22;11959;49.418;8.728;2023-02-14T00:48:51;2.60;99.90
23562;DHT22;11959;49.418;8.728;2023-02-14T00:51:17;2.60;99.90
23562;DHT22;11959;49.418;8.728;2023-02-14T00:53:45;2.60;99.90
23562;DHT22;11959;49.418;8.728;2023-02-14T00:56:12;2.50;99.90
23562;DHT22;11959;49.418;8.728;2023-02-14T00:58:38;2.50;99.90
23562;DHT22;11959;49.418;8.728;2023-02-14T01:01:04;2.40;99.90
23562;DHT22;11959;49.418;8.728;2023-02-14T01:03:30;2.40;99.90
23562;DHT22;11959;49.418;8.728;2023-02-14T01:05:56;2.40;99.90
23562;DHT22;11959;49.418;8.728;2023-02-14T01:08:21;2.40;99.90
23562;DHT22;11959;49.418;8.728;2023-02-14T01:10:47;2.30;99.90
23562;DHT22;11959;49.418;8.728;2023-02-14T01:13:14;2.30;99.90
23562;DHT22;11959;49.418;8.728;2023-02-14T01:15:43;2.20;99.90
23562;DHT22;11959;49.418;8.728;2023-02-14T01:18:09;2.20;99.90
23562;DHT22;11959;49.418;8.728;2023-02-14T01:20:35;2.20;99.90
23562;DHT22;11959;49.418;8.728;2023-02-14T01:23:01;2.10;99.90
23562;DHT22;11959;49.418;8.728;2023-02-14T01:25:27;2.10;99.90
23562;DHT22;11959;49.418;8.728;2023-02-14T01:27:53;2.00;99.90
23562;DHT22;11959;49.418;8.728;2023-02-14T01:30:18;2.00;99.90
23562;DHT22;11959;49.418;8.728;2023-02-14T01:32:44;2.00;99.90
23562;DHT22;11959;49.418;8.728;2023-02-14T01:35:10;2.00;99.90
23562;DHT22;11959;49.418;8.728;2023-02-14T01:37:36;1.90;99.90
23562;DHT22;11959;49.418;8.728;2023-02-14T01:40:03;1.90;99.90
23562;DHT22;11959;49.418;8.728;2023-02-14T01:42:29;1.80;99.90
23562;DHT22;11959;49.418;8.728;2023-02-14T01:44:58;1.80;99.90
23562;DHT22;11959;49.418;8.728;2023-02-14T01:47:26;1.70;99.90
23562;DHT22;11959;49.418;8.728;2023-02-14T01:49:57;1.70;99.90
23562;DHT22;11959;49.418;8.728;2023-02-14T01:52:37;1.70;99.90
23562;DHT22;11959;49.418;8.728;2023-02-14T01:55:10;1.70;99.90
23562;DHT22;11959;49.418;8.728;2023-02-14T01:57:46;1.70;99.90
23562;DHT22;11959;49.418;8.728;2023-02-14T02:00:14;1.60;99.90
23562;DHT22;11959;49.418;8.728;2023-02-14T02:03:00;1.60;99.90
23562;DHT22;11959;49.418;8.728;2023-02-14T02:05:29;1.60;99.90
23562;DHT22;11959;49.418;8.728;2023-02-14T02:07:56;1.70;99.90
23562;DHT22;11959;49.418;8.728;2023-02-14T02:10:23;1.60;99.90
23562;DHT22;11959;49.418;8.728;2023-02-14T02:12:51;1.50;99.90
23562;DHT22;11959;49.418;8.728;2023-02-14T02:15:17;1.60;99.90
23562;DHT22;11959;49.418;8.728;2023-02-14T02:20:58;1.60;99.90
23562;DHT22;11959;49.418;8.728;2023-02-14T02:29:37;1.50;99.90
23562;DHT22;11959;49.418;8.728;2023-02-14T02:35:32;1.50;99.90
23562;DHT22;11959;49.418;8.728;2023-02-14T02:43:38;1.60;99.90
23562;DHT22;11959;49.418;8.728;2023-02-14T02:46:13;1.50;99.90
23562;DHT22;11959;49.418;8.728;2023-02-14T02:52:13;1.50;99.90
23562;DHT22;11959;49.418;8.728;2023-02-14T02:55:02;1.50;99.90
23562;DHT22;11959;49.418;8.728;2023-02-14T02:57:34;1.60;99.90
23562;DHT22;11959;49.418;8.728;2023-02-14T03:00:04;1.50;99.90
23562;DHT22;11959;49.418;8.728;2023-02-14T03:02:33;1.50;99.90
23562;DHT22;11959;49.418;8.728;2023-02-14T03:05:20;1.40;99.90
23562;DHT22;11959;49.418;8.728;2023-02-14T03:07:47;1.50;99.90
23562;DHT22;11959;49.418;8.728;2023-02-14T03:19:18;1.40;99.90
23562;DHT22;11959;49.418;8.728;2023-02-14T03:21:53;1.50;99.90
23562;DHT22;11959;49.418;8.728;2023-02-14T03:32:26;1.60;99.90
23562;DHT22;11959;49.418;8.728;2023-02-14T03:35:05;1.70;99.90
23562;DHT22;11959;49.418;8.728;2023-02-14T03:37:39;1.80;99.90
23562;DHT22;11959;49.418;8.728;2023-02-14T03:40:22;1.80;99.90
23562;DHT22;11959;49.418;8.728;2023-02-14T03:43:35;1.80;99.90
23562;DHT22;11959;49.418;8.728;2023-02-14T03:46:09;1.80;99.90
23562;DHT22;11959;49.418;8.728;2023-02-14T03:48:37;1.90;99.90
23562;DHT22;11959;49.418;8.728;2023-02-14T03:51:05;1.90;99.90
23562;DHT22;11959;49.418;8.728;2023-02-14T03:53:34;1.90;99.90
23562;DHT22;11959;49.418;8.728;2023-02-14T03:58:35;1.90;99.90
23562;DHT22;11959;49.418;8.728;2023-02-14T04:01:15;1.90;99.90
23562;DHT22;11959;49.418;8.728;2023-02-14T04:03:44;1.90;99.90
23562;DHT22;11959;49.418;8.728;2023-02-14T04:06:10;2.00;99.90
23562;DHT22;11959;49.418;8.728;2023-02-14T04:08:35;2.00;99.90
23562;DHT22;11959;49.418;8.728;2023-02-14T04:11:02;2.00;99.90
23562;DHT22;11959;49.418;8.728;2023-02-14T04:13:29;2.10;99.90
23562;DHT22;11959;49.418;8.728;2023-02-14T04:15:55;2.10;99.90
23562;DHT22;11959;49.418;8.728;2023-02-14T04:18:21;2.10;99.90
23562;DHT22;11959;49.418;8.728;2023-02-14T04:21:05;2.10;99.90
23562;DHT22;11959;49.418;8.728;2023-02-14T04:23:30;2.10;99.90
23562;DHT22;11959;49.418;8.728;2023-02-14T04:25:56;2.10;99.90
23562;DHT22;11959;49.418;8.728;2023-02-14T04:28:22;2.10;99.90
23562;DHT22;11959;49.418;8.728;2023-02-14T04:30:48;2.10;99.90
23562;DHT22;11959;49.418;8.728;2023-02-14T04:33:13;2.10;99.90
23562;DHT22;11959;49.418;8.728;2023-02-14T04:35:39;2.10;99.90
23562;DHT22;11959;49.418;8.728;2023-02-14T04:38:05;2.10;99.90
23562;DHT22;11959;49.418;8.728;2023-02-14T04:40:30;2.10;99.90
23562;DHT22;11959;49.418;8.728;2023-02-14T04:42:56;2.10;99.90
23562;DHT22;11959;49.418;8.728;2023-02-14T04:45:22;2.10;99.90
23562;DHT22;11959;49.418;8.728;2023-02-14T04:47:47;2.20;99.90
23562;DHT22;11959;49.418;8.728;2023-02-14T04:50:13;2.20;99.90
23562;DHT22;11959;49.418;8.728;2023-02-14T04:52:40;2.20;99.90
23562;DHT22;11959;49.418;8.728;2023-02-14T04:55:07;2.20;99.90
23562;DHT22;11959;49.418;8.728;2023-02-14T04:57:32;2.20;99.90
23562;DHT22;11959;49.418;8.728;2023-02-14T04:59:58;2.30;99.90
23562;DHT22;11959;49.418;8.728;2023-02-14T05:02:24;2.30;99.90
23562;DHT22;11959;49.418;8.728;2023-02-14T05:04:49;2.30;99.90
23562;DHT22;11959;49.418;8.728;2023-02-14T05:07:15;2.30;99.90
23562;DHT22;11959;49.418;8.728;2023-02-14T05:09:41;2.30;99.90
23562;DHT22;11959;49.418;8.728;2023-02-14T05:12:06;2.30;99.90
23562;DHT22;11959;49.418;8.728;2023-02-14T05:14:32;2.30;99.90
23562;DHT22;11959;49.418;8.728;2023-02-14T05:16:58;2.30;99.90
23562;DHT22;11959;49.418;8.728;2023-02-14T05:19:23;2.30;99.90
23562;DHT22;11959;49.418;8.728;2023-02-14T05:21:49;2.30;99.90
23562;DHT22;11959;49.418;8.728;2023-02-14T05:24:15;2.30;99.90
23562;DHT22;11959;49.418;8.728;2023-02-14T05:26:41;2.20;99.90
23562;DHT22;11959;49.418;8.728;2023-02-14T05:29:07;2.20;99.90
23562;DHT22;11959;49.418;8.728;2023-02-14T05:31:32;2.20;99.90
23562;DHT22;11959;49.418;8.728;2023-02-14T05:33:58;2.20;99.90
23562;DHT22;11959;49.418;8.728;2023-02-14T05:36:24;2.20;99.90
23562;DHT22;11959;49.418;8.728;2023-02-14T05:38:49;2.20;99.90
23562;DHT22;11959;49.418;8.728;2023-02-14T05:41:15;2.20;99.90
23562;DHT22;11959;49.418;8.728;2023-02-14T05:43:41;2.30;99.90
23562;DHT22;11959;49.418;8.728;2023-02-14T05:46:06;2.20;99.90
23562;DHT22;11959;49.418;8.728;2023-02-14T05:48:32;2.30;99.90
23562;DHT22;11959;49.418;8.728;2023-02-14T05:51:06;2.30;99.90
23562;DHT22;11959;49.418;8.728;2023-02-14T05:53:32;2.30;99.90
23562;DHT22;11959;49.418;8.728;2023-02-14T05:55:58;2.30;99.90
23562;DHT22;11959;49.418;8.728;2023-02-14T05:58:24;2.30;99.90
23562;DHT22;11959;49.418;8.728;2023-02-14T06:00:50;2.30;99.90
23562;DHT22;11959;49.418;8.728;2023-02-14T06:03:16;2.20;99.90
23562;DHT22;11959;49.418;8.728;2023-02-14T06:05:41;2.20;99.90
23562;DHT22;11959;49.418;8.728;2023-02-14T06:08:07;2.20;99.90
23562;DHT22;11959;49.418;8.728;2023-02-14T06:10:32;2.20;99.90
23562;DHT22;11959;49.418;8.728;2023-02-14T06:12:58;2.20;99.90
23562;DHT22;11959;49.418;8.728;2023-02-14T06:15:24;2.20;99.90
23562;DHT22;11959;49.418;8.728;2023-02-14T06:17:56;2.30;99.90
23562;DHT22;11959;49.418;8.728;2023-02-14T06:20:23;2.30;99.90
23562;DHT22;11959;49.418;8.728;2023-02-14T06:22:49;2.30;99.90
23562;DHT22;11959;49.418;8.728;2023-02-14T06:25:16;2.20;99.90
23562;DHT22;11959;49.418;8.728;2023-02-14T06:27:42;2.30;99.90
23562;DHT22;11959;49.418;8.728;2023-02-14T06:30:09;2.30;99.90
23562;DHT22;11959;49.418;8.728;2023-02-14T06:32:35;2.30;99.90
23562;DHT22;11959;49.418;8.728;2023-02-14T06:35:00;2.30;99.90
23562;DHT22;11959;49.418;8.728;2023-02-14T06:37:27;2.20;99.90
23562;DHT22;11959;49.418;8.728;2023-02-14T06:39:53;2.20;99.90
23562;DHT22;11959;49.418;8.728;2023-02-14T06:42:19;2.30;99.90
23562;DHT22;11959;49.418;8.728;2023-02-14T06:44:44;2.20;99.90
23562;DHT22;11959;49.418;8.728;2023-02-14T06:47:10;2.30;99.90
23562;DHT22;11959;49.418;8.728;2023-02-14T06:49:36;2.30;99.90
23562;DHT22;11959;49.418;8.728;2023-02-14T06:52:03;2.20;99.90
23562;DHT22;11959;49.418;8.728;2023-02-14T06:54:29;2.30;99.90
23562;DHT22;11959;49.418;8.728;2023-02-14T06:56:54;2.30;99.90
23562;DHT22;11959;49.418;8.728;2023-02-14T06:59:20;2.20;99.90
23562;DHT22;11959;49.418;8.728;2023-02-14T07:01:46;2.20;99.90
23562;DHT22;11959;49.418;8.728;2023-02-14T07:04:11;2.30;99.90
23562;DHT22;11959;49.418;8.728;2023-02-14T07:06:37;2.30;99.90
23562;DHT22;11959;49.418;8.728;2023-02-14T07:09:03;2.30;99.90
23562;DHT22;11959;49.418;8.728;2023-02-14T07:11:29;2.30;99.90
23562;DHT22;11959;49.418;8.728;2023-02-14T07:13:55;2.30;99.90
23562;DHT22;11959;49.418;8.728;2023-02-14T07:16:20;2.30;99.90
23562;DHT22;11959;49.418;8.728;2023-02-14T07:18:46;2.30;99.90
23562;DHT22;11959;49.418;8.728;2023-02-14T07:21:12;2.40;99.90
23562;DHT22;11959;49.418;8.728;2023-02-14T07:23:37;2.40;99.90
23562;DHT22;11959;49.418;8.728;2023-02-14T07:26:03;2.40;99.90
23562;DHT22;11959;49.418;8.728;2023-02-14T07:28:29;2.40;99.90
23562;DHT22;11959;49.418;8.728;2023-02-14T07:30:58;2.30;99.90
23562;DHT22;11959;49.418;8.728;2023-02-14T07:33:25;2.40;99.90
23562;DHT22;11959;49.418;8.728;2023-02-14T07:35:50;2.40;99.90
23562;DHT22;11959;49.418;8.728;2023-02-14T07:38:16;2.40;99.90
23562;DHT22;11959;49.418;8.728;2023-02-14T07:40:42;2.40;99.90
23562;DHT22;11959;49.418;8.728;2023-02-14T07:43:07;2.40;99.90
23562;DHT22;11959;49.418;8.728;2023-02-14T07:45:33;2.40;99.90
23562;DHT22;11959;49.418;8.728;2023-02-14T07:47:59;2.50;99.90
23562;DHT22;11959;49.418;8.728;2023-02-14T07:50:27;2.50;99.90
23562;DHT22;11959;49.418;8.728;2023-02-14T07:52:54;2.50;99.90
23562;DHT22;11959;49.418;8.728;2023-02-14T07:55:21;2.50;99.90
23562;DHT22;11959;49.418;8.728;2023-02-14T07:57:49;2.50;99.90
23562;DHT22;11959;49.418;8.728;2023-02-14T08:00:16;2.50;99.90
23562;DHT22;11959;49.418;8.728;2023-02-14T08:02:41;2.50;99.90
23562;DHT22;11959;49.418;8.728;2023-02-14T08:05:07;2.60;99.90
23562;DHT22;11959;49.418;8.728;2023-02-14T08:07:33;2.60;99.90
23562;DHT22;11959;49.418;8.728;2023-02-14T08:09:58;2.60;99.90
23562;DHT22;11959;49.418;8.728;2023-02-14T08:12:24;2.70;99.90
23562;DHT22;11959;49.418;8.728;2023-02-14T08:15:08;2.70;99.90
23562;DHT22;11959;49.418;8.728;2023-02-14T08:17:52;2.70;99.90
23562;DHT22;11959;49.418;8.728;2023-02-14T08:20:18;2.70;99.90
23562;DHT22;11959;49.418;8.728;2023-02-14T08:22:44;2.70;99.90
23562;DHT22;11959;49.418;8.728;2023-02-14T08:25:09;2.70;99.90
23562;DHT22;11959;49.418;8.728;2023-02-14T08:27:35;2.70;99.90
23562;DHT22;11959;49.418;8.728;2023-02-14T08:30:00;2.70;99.90
23562;DHT22;11959;49.418;8.728;2023-02-14T08:32:26;2.70;99.90
23562;DHT22;11959;49.418;8.728;2023-02-14T08:34:52;2.70;99.90
23562;DHT22;11959;49.418;8.728;2023-02-14T08:37:17;2.80;99.90
23562;DHT22;11959;49.418;8.728;2023-02-14T08:39:43;2.80;99.90
23562;DHT22;11959;49.418;8.728;2023-02-14T08:42:09;2.80;99.90
23562;DHT22;11959;49.418;8.728;2023-02-14T08:44:34;2.90;99.90
23562;DHT22;11959;49.418;8.728;2023-02-14T08:47:00;2.90;99.90
23562;DHT22;11959;49.418;8.728;2023-02-14T08:49:26;2.90;99.90
23562;DHT22;11959;49.418;8.728;2023-02-14T08:51:51;3.00;99.90
23562;DHT22;11959;49.418;8.728;2023-02-14T08:54:18;3.10;99.90
23562;DHT22;11959;49.418;8.728;2023-02-14T08:56:44;3.10;99.90
23562;DHT22;11959;49.418;8.728;2023-02-14T08:59:10;3.00;99.90
23562;DHT22;11959;49.418;8.728;2023-02-14T09:01:35;3.00;99.90
23562;DHT22;11959;49.418;8.728;2023-02-14T09:04:01;3.00;99.90
23562;DHT22;11959;49.418;8.728;2023-02-14T09:06:28;3.00;99.90
23562;DHT22;11959;49.418;8.728;2023-02-14T09:08:53;3.10;99.90
23562;DHT22;11959;49.418;8.728;2023-02-14T09:11:22;3.10;99.90
23562;DHT22;11959;49.418;8.728;2023-02-14T09:13:49;3.20;99.90
23562;DHT22;11959;49.418;8.728;2023-02-14T09:16:17;3.20;99.90
23562;DHT22;11959;49.418;8.728;2023-02-14T09:18:43;3.30;99.90
23562;DHT22;11959;49.418;8.728;2023-02-14T09:21:12;3.40;99.90
23562;DHT22;11959;49.418;8.728;2023-02-14T09:23:38;3.40;99.90
23562;DHT22;11959;49.418;8.728;2023-02-14T09:26:06;3.40;99.90
23562;DHT22;11959;49.418;8.728;2023-02-14T09:28:32;3.40;99.90
23562;DHT22;11959;49.418;8.728;2023-02-14T09:31:02;3.50;99.90
23562;DHT22;11959;49.418;8.728;2023-02-14T09:33:31;3.50;99.90
23562;DHT22;11959;49.418;8.728;2023-02-14T09:36:16;3.60;99.90
23562;DHT22;11959;49.418;8.728;2023-02-14T09:39:00;3.60;99.90
23562;DHT22;11959;49.418;8.728;2023-02-14T09:44:05;3.70;99.90
23562;DHT22;11959;49.418;8.728;2023-02-14T09:46:44;3.70;99.90
23562;DHT22;11959;49.418;8.728;2023-02-14T09:49:16;3.70;99.90
23562;DHT22;11959;49.418;8.728;2023-02-14T09:51:49;3.70;99.90
23562;DHT22;11959;49.418;8.728;2023-02-14T09:54:23;3.80;99.90
23562;DHT22;11959;49.418;8.728;2023-02-14T09:57:02;3.80;99.90
23562;DHT22;11959;49.418;8.728;2023-02-14T09:59:46;3.90;99.90
23562;DHT22;11959;49.418;8.728;2023-02-14T10:07:56;4.00;99.90
23562;DHT22;11959;49.418;8.728;2023-02-14T10:10:41;4.00;99.90
23562;DHT22;11959;49.418;8.728;2023-02-14T10:13:25;4.10;99.90
23562;DHT22;11959;49.418;8.728;2023-02-14T10:16:07;4.10;99.90
23562;DHT22;11959;49.418;8.728;2023-02-14T10:18:48;4.10;99.90
23562;DHT22;11959;49.418;8.728;2023-02-14T10:21:26;4.20;99.90
23562;DHT22;11959;49.418;8.728;2023-02-14T10:24:34;4.20;99.90
23562;DHT22;11959;49.418;8.728;2023-02-14T10:26:54;4.20;99.90
23562;DHT22;11959;49.418;8.728;2023-02-14T10:29:22;4.30;99.90
23562;DHT22;11959;49.418;8.728;2023-02-14T10:31:58;4.30;99.90
23562;DHT22;11959;49.418;8.728;2023-02-14T10:34:48;4.40;99.90
23562;DHT22;11959;49.418;8.728;2023-02-14T10:37:35;4.40;99.90
23562;DHT22;11959;49.418;8.728;2023-02-14T10:48:04;4.60;99.90
23562;DHT22;11959;49.418;8.728;2023-02-14T10:51:02;4.60;99.90
23562;DHT22;11959;49.418;8.728;2023-02-14T10:56:34;4.70;99.90
23562;DHT22;11959;49.418;8.728;2023-02-14T11:02:05;4.70;99.90
23562;DHT22;11959;49.418;8.728;2023-02-14T11:04:32;4.70;99.90
23562;DHT22;11959;49.418;8.728;2023-02-14T11:06:59;4.70;99.90
23562;DHT22;11959;49.418;8.728;2023-02-14T11:09:25;4.70;99.90
23562;DHT22;11959;49.418;8.728;2023-02-14T11:11:53;4.70;99.90
23562;DHT22;11959;49.418;8.728;2023-02-14T11:16:48;4.60;99.90
23562;DHT22;11959;49.418;8.728;2023-02-14T11:21:46;4.60;99.90
23562;DHT22;11959;49.418;8.728;2023-02-14T11:24:29;4.60;99.90
23562;DHT22;11959;49.418;8.728;2023-02-14T11:27:02;4.60;99.90
23562;DHT22;11959;49.418;8.728;2023-02-14T11:29:47;4.60;99.90
23562;DHT22;11959;49.418;8.728;2023-02-14T11:32:25;4.60;99.90
23562;DHT22;11959;49.418;8.728;2023-02-14T11:37:48;4.70;99.90
23562;DHT22;11959;49.418;8.728;2023-02-14T11:40:35;4.70;99.90
23562;DHT22;11959;49.418;8.728;2023-02-14T11:43:17;4.70;99.90
23562;DHT22;11959;49.418;8.728;2023-02-14T11:45:46;4.70;99.90
23562;DHT22;11959;49.418;8.728;2023-02-14T11:51:02;4.60;99.90
23562;DHT22;11959;49.418;8.728;2023-02-14T11:53:56;4.60;99.90
23562;DHT22;11959;49.418;8.728;2023-02-14T11:59:41;4.50;99.90
23562;DHT22;11959;49.418;8.728;2023-02-14T12:02:31;4.50;99.90
23562;DHT22;11959;49.418;8.728;2023-02-14T12:05:22;4.50;99.90
23562;DHT22;11959;49.418;8.728;2023-02-14T12:07:50;4.50;99.90
23562;DHT22;11959;49.418;8.728;2023-02-14T12:10:28;4.50;99.90
23562;DHT22;11959;49.418;8.728;2023-02-14T12:12:58;4.50;99.90
23562;DHT22;11959;49.418;8.728;2023-02-14T12:15:31;4.50;99.90
23562;DHT22;11959;49.418;8.728;2023-02-14T12:18:24;4.60;99.90
23562;DHT22;11959;49.418;8.728;2023-02-14T12:21:12;4.60;99.90
23562;DHT22;11959;49.418;8.728;2023-02-14T12:28:49;4.60;99.90
23562;DHT22;11959;49.418;8.728;2023-02-14T12:31:16;4.60;99.90
23562;DHT22;11959;49.418;8.728;2023-02-14T12:33:42;4.60;99.90
23562;DHT22;11959;49.418;8.728;2023-02-14T12:39:10;4.70;99.90
23562;DHT22;11959;49.418;8.728;2023-02-14T12:42:00;4.70;99.90
23562;DHT22;11959;49.418;8.728;2023-02-14T12:47:43;4.70;99.90
23562;DHT22;11959;49.418;8.728;2023-02-14T12:59:32;4.80;99.90
23562;DHT22;11959;49.418;8.728;2023-02-14T13:05:21;4.80;99.90
23562;DHT22;11959;49.418;8.728;2023-02-14T13:11:07;4.70;99.90
23562;DHT22;11959;49.418;8.728;2023-02-14T13:21:44;4.70;99.90
23562;DHT22;11959;49.418;8.728;2023-02-14T13:24:22;4.70;99.90
23562;DHT22;11959;49.418;8.728;2023-02-14T13:26:51;4.70;99.90
23562;DHT22;11959;49.418;8.728;2023-02-14T13:29:22;4.70;99.90
23562;DHT22;11959;49.418;8.728;2023-02-14T13:31:51;4.70;99.90
23562;DHT22;11959;49.418;8.728;2023-02-14T13:34:34;4.70;99.90
23562;DHT22;11959;49.418;8.728;2023-02-14T13:37:04;4.80;99.90
23562;DHT22;11959;49.418;8.728;2023-02-14T13:39:36;4.70;99.90
23562;DHT22;11959;49.418;8.728;2023-02-14T13:42:03;4.80;99.90
23562;DHT22;11959;49.418;8.728;2023-02-14T13:44:49;4.80;99.90
23562;DHT22;11959;49.418;8.728;2023-02-14T13:49:48;4.80;99.90
23562;DHT22;11959;49.418;8.728;2023-02-14T13:52:41;4.80;99.90
23562;DHT22;11959;49.418;8.728;2023-02-14T13:55:12;4.90;99.90
23562;DHT22;11959;49.418;8.728;2023-02-14T13:57:39;4.80;99.90
23562;DHT22;11959;49.418;8.728;2023-02-14T14:08:33;4.90;99.90
23562;DHT22;11959;49.418;8.728;2023-02-14T14:11:02;4.80;99.90
23562;DHT22;11959;49.418;8.728;2023-02-14T14:16:31;4.80;99.90
23562;DHT22;11959;49.418;8.728;2023-02-14T14:24:35;4.70;99.90
23562;DHT22;11959;49.418;8.728;2023-02-14T14:27:13;4.70;99.90
23562;DHT22;11959;49.418;8.728;2023-02-14T14:30:14;4.80;99.90
23562;DHT22;11959;49.418;8.728;2023-02-14T14:32:41;4.80;99.90
23562;DHT22;11959;49.418;8.728;2023-02-14T14:37:51;4.80;99.90
23562;DHT22;11959;49.418;8.728;2023-02-14T14:40:29;4.80;99.90
23562;DHT22;11959;49.418;8.728;2023-02-14T14:43:10;4.70;99.90
23562;DHT22;11959;49.418;8.728;2023-02-14T14:45:36;4.70;99.90
23562;DHT22;11959;49.418;8.728;2023-02-14T14:48:11;4.70;99.90
23562;DHT22;11959;49.418;8.728;2023-02-14T14:50:42;4.80;99.90
23562;DHT22;11959;49.418;8.728;2023-02-14T14:53:31;4.80;99.90
23562;DHT22;11959;49.418;8.728;2023-02-14T14:56:00;4.80;99.90
23562;DHT22;11959;49.418;8.728;2023-02-14T14:58:38;4.80;99.90
23562;DHT22;11959;49.418;8.728;2023-02-14T15:01:06;4.80;99.90
23562;DHT22;11959;49.418;8.728;2023-02-14T15:03:33;4.80;99.90
23562;DHT22;11959;49.418;8.728;2023-02-14T15:06:12;4.80;99.90
23562;DHT22;11959;49.418;8.728;2023-02-14T15:08:38;4.70;99.90
23562;DHT22;11959;49.418;8.728;2023-02-14T15:11:19;4.80;99.90
23562;DHT22;11959;49.418;8.728;2023-02-14T15:14:12;4.70;99.90
23562;DHT22;11959;49.418;8.728;2023-02-14T15:16:57;4.70;99.90
23562;DHT22;11959;49.418;8.728;2023-02-14T15:19:25;4.70;99.90
23562;DHT22;11959;49.418;8.728;2023-02-14T15:21:58;4.70;99.90
23562;DHT22;11959;49.418;8.728;2023-02-14T15:24:25;4.70;99.90
23562;DHT22;11959;49.418;8.728;2023-02-14T15:26:51;4.60;99.90
23562;DHT22;11959;49.418;8.728;2023-02-14T15:31:48;4.50;99.90
23562;DHT22;11959;49.418;8.728;2023-02-14T15:34:14;4.50;99.90
23562;DHT22;11959;49.418;8.728;2023-02-14T15:36:41;4.50;99.90
23562;DHT22;11959;49.418;8.728;2023-02-14T15:39:14;4.50;99.90
23562;DHT22;11959;49.418;8.728;2023-02-14T15:41:44;4.40;99.90
23562;DHT22;11959;49.418;8.728;2023-02-14T15:44:24;4.40;99.90
23562;DHT22;11959;49.418;8.728;2023-02-14T15:47:00;4.40;99.90
23562;DHT22;11959;49.418;8.728;2023-02-14T15:49:35;4.40;99.90
23562;DHT22;11959;49.418;8.728;2023-02-14T15:52:03;4.30;99.90
23562;DHT22;11959;49.418;8.728;2023-02-14T15:54:37;4.30;99.90
23562;DHT22;11959;49.418;8.728;2023-02-14T15:57:14;4.30;99.90
23562;DHT22;11959;49.418;8.728;2023-02-14T15:59:41;4.20;99.90
23562;DHT22;11959;49.418;8.728;2023-02-14T16:02:37;4.10;99.90
23562;DHT22;11959;49.418;8.728;2023-02-14T16:07:39;4.00;99.90
23562;DHT22;11959;49.418;8.728;2023-02-14T16:10:27;4.00;99.90
23562;DHT22;11959;49.418;8.728;2023-02-14T16:15:36;3.90;99.90
23562;DHT22;11959;49.418;8.728;2023-02-14T16:18:04;3.90;99.90
23562;DHT22;11959;49.418;8.728;2023-02-14T16:20:42;3.90;99.90
23562;DHT22;11959;49.418;8.728;2023-02-14T16:25:48;3.70;99.90
23562;DHT22;11959;49.418;8.728;2023-02-14T16:28:14;3.70;99.90
23562;DHT22;11959;49.418;8.728;2023-02-14T16:30:40;3.70;99.90
23562;DHT22;11959;49.418;8.728;2023-02-14T16:33:27;3.70;99.90
23562;DHT22;11959;49.418;8.728;2023-02-14T16:36:06;3.70;99.90
23562;DHT22;11959;49.418;8.728;2023-02-14T16:38:39;3.70;99.90
23562;DHT22;11959;49.418;8.728;2023-02-14T16:41:06;3.70;99.90
23562;DHT22;11959;49.418;8.728;2023-02-14T16:43:37;3.60;99.90
23562;DHT22;11959;49.418;8.728;2023-02-14T16:46:03;3.60;99.90
23562;DHT22;11959;49.418;8.728;2023-02-14T16:48:28;3.50;99.90
23562;DHT22;11959;49.418;8.728;2023-02-14T16:50:54;3.50;99.90
23562;DHT22;11959;49.418;8.728;2023-02-14T16:53:25;3.50;99.90
23562;DHT22;11959;49.418;8.728;2023-02-14T16:55:53;3.50;99.90
23562;DHT22;11959;49.418;8.728;2023-02-14T16:58:20;3.40;99.90
23562;DHT22;11959;49.418;8.728;2023-02-14T17:00:47;3.40;99.90
23562;DHT22;11959;49.418;8.728;2023-02-14T17:03:13;3.40;99.90
23562;DHT22;11959;49.418;8.728;2023-02-14T17:05:39;3.40;99.90
23562;DHT22;11959;49.418;8.728;2023-02-14T17:08:06;3.40;99.90
23562;DHT22;11959;49.418;8.728;2023-02-14T17:10:34;3.30;99.90
23562;DHT22;11959;49.418;8.728;2023-02-14T17:13:01;3.30;99.90
23562;DHT22;11959;49.418;8.728;2023-02-14T17:15:29;3.30;99.90
23562;DHT22;11959;49.418;8.728;2023-02-14T17:17:59;3.30;99.90
23562;DHT22;11959;49.418;8.728;2023-02-14T17:20:28;3.30;99.90
23562;DHT22;11959;49.418;8.728;2023-02-14T17:22:54;3.30;99.90
23562;DHT22;11959;49.418;8.728;2023-02-14T17:25:20;3.30;99.90
23562;DHT22;11959;49.418;8.728;2023-02-14T17:27:45;3.30;99.90
23562;DHT22;11959;49.418;8.728;2023-02-14T17:30:13;3.30;99.90
23562;DHT22;11959;49.418;8.728;2023-02-14T17:32:39;3.20;99.90
23562;DHT22;11959;49.418;8.728;2023-02-14T17:35:05;3.20;99.90
23562;DHT22;11959;49.418;8.728;2023-02-14T17:37:34;3.10;99.90
23562;DHT22;11959;49.418;8.728;2023-02-14T17:39:59;3.10;99.90
23562;DHT22;11959;49.418;8.728;2023-02-14T17:42:25;3.10;99.90
23562;DHT22;11959;49.418;8.728;2023-02-14T17:44:51;3.00;99.90
23562;DHT22;11959;49.418;8.728;2023-02-14T17:47:17;3.00;99.90
23562;DHT22;11959;49.418;8.728;2023-02-14T17:49:45;3.00;99.90
23562;DHT22;11959;49.418;8.728;2023-02-14T17:52:12;3.00;99.90
23562;DHT22;11959;49.418;8.728;2023-02-14T17:54:38;3.00;99.90
23562;DHT22;11959;49.418;8.728;2023-02-14T17:57:04;2.90;99.90
23562;DHT22;11959;49.418;8.728;2023-02-14T17:59:30;2.90;99.90
23562;DHT22;11959;49.418;8.728;2023-02-14T18:01:57;2.80;99.90
23562;DHT22;11959;49.418;8.728;2023-02-14T18:04:23;2.80;99.90
23562;DHT22;11959;49.418;8.728;2023-02-14T18:06:49;2.70;99.90
23562;DHT22;11959;49.418;8.728;2023-02-14T18:09:14;2.70;99.90
23562;DHT22;11959;49.418;8.728;2023-02-14T18:11:40;2.60;99.90
23562;DHT22;11959;49.418;8.728;2023-02-14T18:14:09;2.70;99.90
23562;DHT22;11959;49.418;8.728;2023-02-14T18:16:39;2.70;99.90
23562;DHT22;11959;49.418;8.728;2023-02-14T18:19:05;2.60;99.90
23562;DHT22;11959;49.418;8.728;2023-02-14T18:21:33;2.60;99.90
23562;DHT22;11959;49.418;8.728;2023-02-14T18:24:02;2.50;99.90
23562;DHT22;11959;49.418;8.728;2023-02-14T18:26:28;2.50;99.90
23562;DHT22;11959;49.418;8.728;2023-02-14T18:28:54;2.60;99.90